Time;durP1;ratioP1;P1;durP2;ratioP2;P2;SDS_P1;SDS_P2;PMS_P1;PMS_P2;Temp;Humidity;BMP_temperature;BMP_pressure;BME280_temperature;BME280_humidity;BME280_pressure;Samples;Min_cycle;Max_cycle;Signal;HPM_P1;HPM_P2
2021/07/31 00:02:25;;;;;;;5.68;3.30;;;;;;;14.16;81.60;90551.88;5011434;28;20044;-89
2021/07/31 00:05:06;;;;;;;4.93;3.30;;;;;;;14.17;80.93;90544.75;5012259;28;20036;-91
2021/07/31 00:07:46;;;;;;;4.50;3.35;;;;;;;14.22;80.85;90539.97;4996340;28;20097;-89
2021/07/31 00:10:24;;;;;;;4.72;3.45;;;;;;;14.21;80.82;90533.22;5011928;28;20034;-90
2021/07/31 00:12:52;;;;;;;4.60;3.25;;;;;;;14.22;80.88;90536.59;4980416;28;20026;-90
2021/07/31 00:15:28;;;;;;;6.32;3.60;;;;;;;14.15;81.83;90544.38;5011987;28;20116;-89
2021/07/31 00:18:06;;;;;;;4.15;3.10;;;;;;;14.21;79.75;90533.22;5012096;28;20482;-89
2021/07/31 00:20:46;;;;;;;4.82;3.13;;;;;;;14.30;80.50;90533.69;5012913;28;20033;-90
2021/07/31 00:23:23;;;;;;;3.85;3.00;;;;;;;14.15;81.95;90542.50;4996663;28;20025;-89
2021/07/31 00:25:57;;;;;;;6.50;3.60;;;;;;;14.03;82.28;90527.81;4965424;28;20475;-90
2021/07/31 00:28:36;;;;;;;5.30;2.72;;;;;;;14.13;80.76;90536.88;4977073;28;20034;-89
2021/07/31 00:31:13;;;;;;;7.53;2.83;;;;;;;14.12;81.10;90540.59;4991617;28;20029;-88
2021/07/31 00:33:51;;;;;;;3.55;2.80;;;;;;;14.12;81.29;90545.84;4976098;28;20027;-88
2021/07/31 00:36:27;;;;;;;4.20;3.03;;;;;;;14.17;80.20;90527.19;4992429;28;20438;-89
2021/07/31 00:39:04;;;;;;;4.82;2.90;;;;;;;14.14;79.92;90527.91;4976797;28;20022;-90
2021/07/31 00:41:42;;;;;;;4.95;2.63;;;;;;;14.19;79.60;90534.69;4960454;28;20030;-90
2021/07/31 00:44:23;;;;;;;3.35;2.63;;;;;;;14.23;79.57;90536.22;4976776;28;20038;-90
2021/07/31 00:46:54;;;;;;;4.75;2.80;;;;;;;14.24;78.82;90523.88;4992238;28;20026;-89
2021/07/31 00:49:35;;;;;;;4.15;2.50;;;;;;;14.25;78.71;90525.41;4975983;28;20113;-90
2021/07/31 00:52:10;;;;;;;2.97;2.47;;;;;;;14.19;78.38;90527.56;4976217;28;20507;-89
2021/07/31 00:54:47;;;;;;;4.78;2.50;;;;;;;14.32;77.76;90528.84;4975695;28;20105;-89
2021/07/31 00:57:24;;;;;;;3.88;2.75;;;;;;;14.20;77.60;90525.72;4976393;28;20116;-89
2021/07/31 01:00:03;;;;;;;3.90;2.60;;;;;;;14.11;78.47;90533.88;4976014;28;20026;-89
2021/07/31 01:02:39;;;;;;;5.25;2.72;;;;;;;14.04;78.38;90520.69;5041073;23;20128;-88
2021/07/31 01:05:14;;;;;;;2.90;2.38;;;;;;;14.04;78.62;90528.56;4998408;28;20029;-88
2021/07/31 01:07:52;;;;;;;3.25;2.47;;;;;;;14.09;78.79;90520.34;4999190;28;20060;-87
2021/07/31 01:10:31;;;;;;;3.95;2.40;;;;;;;14.12;77.83;90530.13;4998599;28;20489;-88
2021/07/31 01:13:11;;;;;;;3.20;2.40;;;;;;;14.17;77.30;90519.34;4998091;28;20036;-88
2021/07/31 01:16:01;;;;;;;3.72;2.35;;;;;;;14.17;77.45;90523.81;5031913;28;20493;-88
2021/07/31 01:18:41;;;;;;;5.05;2.40;;;;;;;14.02;78.06;90522.91;4998760;28;20025;-87
2021/07/31 01:21:34;;;;;;;3.60;2.50;;;;;;;14.04;78.29;90523.31;4983080;28;20029;-88
2021/07/31 01:24:13;;;;;;;4.32;2.38;;;;;;;14.04;78.10;90518.06;5017158;28;20029;-88
2021/07/31 01:26:48;;;;;;;4.10;2.10;;;;;;;13.95;78.08;90504.50;5011011;28;20104;-88
2021/07/31 01:29:28;;;;;;;4.28;2.35;;;;;;;13.90;78.52;90508.19;4994394;28;20025;-89
2021/07/31 01:32:03;;;;;;;4.18;2.20;;;;;;;13.86;78.50;90507.41;4978920;28;20113;-88
2021/07/31 01:34:37;;;;;;;4.85;2.25;;;;;;;13.86;78.55;90516.00;4979083;28;20022;-88
2021/07/31 01:37:15;;;;;;;3.15;2.20;;;;;;;13.78;78.42;90503.16;5010691;28;20029;-88
2021/07/31 01:39:52;;;;;;;3.97;2.42;;;;;;;13.71;78.99;90503.88;4995064;28;20033;-87
2021/07/31 01:42:26;;;;;;;5.43;2.35;;;;;;;13.67;78.72;90500.44;4977679;28;20025;-88
2021/07/31 01:44:58;;;;;;;;;;;;;;;13.81;77.72;90505.81;4995304;28;20101;-88
2021/07/31 01:47:35;;;;;;;3.20;2.40;;;;;;;13.69;78.19;90508.69;4994177;28;19916;-88
2021/07/31 01:50:11;;;;;;;3.17;2.30;;;;;;;13.67;78.28;90507.53;4962777;28;20405;-88
2021/07/31 01:52:50;;;;;;;4.13;2.33;;;;;;;13.50;78.77;90501.75;4995271;28;20030;-88
2021/07/31 01:55:27;;;;;;;3.75;2.30;;;;;;;13.60;78.72;90498.50;4995142;28;20433;-88
2021/07/31 01:58:00;;;;;;;3.38;2.00;;;;;;;13.46;78.87;90497.56;4979282;28;20022;-88
2021/07/31 02:00:39;;;;;;;7.63;2.53;;;;;;;13.42;79.05;90489.66;4979055;28;20105;-87
2021/07/31 02:03:17;;;;;;;3.45;2.33;;;;;;;13.39;79.44;90493.75;4978731;28;20029;-88
2021/07/31 02:05:55;;;;;;;4.25;2.15;;;;;;;13.52;78.63;90504.00;4994756;28;20022;-88
2021/07/31 02:08:37;;;;;;;4.10;2.08;;;;;;;13.33;79.18;90492.53;4995254;28;20034;-88
2021/07/31 02:11:13;;;;;;;5.05;2.35;;;;;;;13.39;78.71;90503.44;4994467;28;20108;-88
2021/07/31 02:13:48;;;;;;;5.80;2.50;;;;;;;13.13;80.02;90488.50;4993772;28;20029;-89
2021/07/31 02:16:34;;;;;;;4.78;2.20;;;;;;;13.20;79.12;90493.81;4994112;28;20108;-88
2021/07/31 02:19:02;;;;;;;4.43;2.30;;;;;;;13.08;79.82;90483.59;4979069;28;20034;-88
2021/07/31 02:21:38;;;;;;;4.03;2.20;;;;;;;13.12;79.31;90476.53;4961992;28;20068;-88
2021/07/31 02:24:22;;;;;;;3.97;2.22;;;;;;;13.10;79.51;90489.19;4994351;28;20061;-88
2021/07/31 02:26:56;;;;;;;3.72;2.20;;;;;;;12.95;80.13;90485.63;4998356;28;20416;-88
2021/07/31 02:29:30;;;;;;;3.53;2.20;;;;;;;12.82;80.14;90492.91;4997535;28;20029;-88
2021/07/31 02:32:03;;;;;;;5.10;2.00;;;;;;;12.78;79.45;90489.50;4997193;28;20024;-88
2021/07/31 02:34:40;;;;;;;3.45;2.03;;;;;;;12.83;79.13;90491.06;4996918;28;20029;-88
2021/07/31 02:37:12;;;;;;;3.58;1.90;;;;;;;12.92;79.30;90487.09;4998200;28;20031;-88
2021/07/31 02:39:51;;;;;;;3.47;2.05;;;;;;;12.79;79.60;90493.63;4996960;28;20068;-89
2021/07/31 02:42:24;;;;;;;3.38;2.10;;;;;;;12.63;80.31;90479.94;4998578;28;20021;-88
2021/07/31 02:45:13;;;;;;;6.15;2.55;;;;;;;12.61;80.44;90495.19;4998035;28;20504;-88
2021/07/31 02:47:52;;;;;;;6.45;2.25;;;;;;;12.51;80.67;90485.34;4998665;28;20501;-87
2021/07/31 02:50:28;;;;;;;3.05;1.90;;;;;;;12.38;81.42;90482.91;4998185;28;20486;-88
2021/07/31 02:53:09;;;;;;;4.63;1.95;;;;;;;12.48;80.88;90483.44;4981821;28;20025;-87
2021/07/31 02:55:42;;;;;;;4.28;2.28;;;;;;;12.26;81.79;90483.09;5017222;28;20026;-88
2021/07/31 02:58:22;;;;;;;5.05;2.10;;;;;;;12.16;81.94;90475.81;5000739;28;20059;-86
2021/07/31 03:00:58;;;;;;;3.78;2.10;;;;;;;12.12;82.46;90483.59;5001617;28;20120;-87
2021/07/31 03:03:34;;;;;;;3.63;2.22;;;;;;;12.06;82.97;90460.72;5017492;28;20025;-88
2021/07/31 03:06:07;;;;;;;3.38;2.05;;;;;;;12.10;82.19;90466.75;5016601;28;20029;-87
2021/07/31 03:08:41;;;;;;;4.03;2.08;;;;;;;12.22;81.60;90471.81;5001409;28;20025;-87
2021/07/31 03:11:15;;;;;;;4.95;2.30;;;;;;;12.05;82.57;90478.25;5016237;28;20497;-89
2021/07/31 03:13:51;;;;;;;3.30;1.95;;;;;;;12.00;83.40;90470.69;5000192;28;20041;-87
2021/07/31 03:16:26;;;;;;;5.90;2.47;;;;;;;12.01;83.46;90469.59;5000708;28;20041;-88
2021/07/31 03:19:04;;;;;;;4.50;2.42;;;;;;;12.25;81.77;90460.66;4984982;28;20029;-87
2021/07/31 03:21:40;;;;;;;4.63;2.70;;;;;;;12.02;83.27;90460.66;4985094;28;20424;-87
2021/07/31 03:24:12;;;;;;;3.97;2.33;;;;;;;12.02;83.08;90473.72;5000848;28;20033;-88
2021/07/31 03:26:51;;;;;;;3.30;2.17;;;;;;;11.94;83.52;90469.47;4986085;28;20541;-87
2021/07/31 03:29:27;;;;;;;6.68;2.55;;;;;;;11.83;83.56;90466.63;4966848;28;20050;-87
2021/07/31 03:32:04;;;;;;;2.90;2.33;;;;;;;11.74;84.33;90466.09;4982220;28;20104;-89
2021/07/31 03:34:45;;;;;;;4.00;2.28;;;;;;;11.70;84.31;90460.06;4997882;28;20025;-87
2021/07/31 03:37:25;;;;;;;3.50;2.33;;;;;;;11.81;83.58;90471.44;4981231;28;20573;-89
2021/07/31 03:39:58;;;;;;;6.05;2.25;;;;;;;11.61;84.41;90472.56;4983238;28;20040;-87
2021/07/31 03:42:36;;;;;;;3.33;2.08;;;;;;;11.53;84.74;90463.09;4982556;28;20117;-87
2021/07/31 03:45:12;;;;;;;4.15;2.42;;;;;;;11.52;84.74;90458.97;4980866;28;20018;-88
2021/07/31 03:47:52;;;;;;;4.10;2.25;;;;;;;11.69;83.69;90461.91;4981845;28;20102;-87
2021/07/31 03:50:28;;;;;;;4.50;2.33;;;;;;;11.55;84.11;90463.50;4990187;28;20026;-87
2021/07/31 03:53:03;;;;;;;7.88;2.60;;;;;;;11.56;83.96;90467.63;4996674;28;20113;-87
2021/07/31 03:55:41;;;;;;;3.80;2.17;;;;;;;11.67;83.63;90471.94;4997073;28;20022;-87
2021/07/31 03:58:21;;;;;;;4.18;2.80;;;;;;;11.62;83.19;90468.84;4980392;28;20030;-88
2021/07/31 04:00:58;;;;;;;5.15;2.40;;;;;;;11.56;84.13;90472.84;4980876;28;20109;-87
2021/07/31 04:03:36;;;;;;;4.88;2.80;;;;;;;11.44;84.44;90474.47;4996776;28;20486;-87
2021/07/31 04:06:13;;;;;;;3.35;2.35;;;;;;;11.42;84.83;90481.91;4980220;28;20030;-87
2021/07/31 04:08:49;;;;;;;3.05;2.30;;;;;;;11.28;85.02;90478.25;4980310;28;20022;-86
2021/07/31 04:11:23;;;;;;;7.25;2.30;;;;;;;11.33;84.96;90473.50;4995915;28;20030;-87
2021/07/31 04:14:02;;;;;;;5.18;2.58;;;;;;;11.32;85.08;90477.22;4996389;28;20026;-87
2021/07/31 04:16:34;;;;;;;5.35;2.42;;;;;;;11.56;84.16;90470.25;4995717;28;20065;-88
2021/07/31 04:19:11;;;;;;;5.25;2.58;;;;;;;11.42;84.67;90481.91;4980295;28;20053;-87
2021/07/31 04:21:53;;;;;;;3.25;2.35;;;;;;;11.38;85.12;90490.78;4981516;28;20030;-87
2021/07/31 04:24:34;;;;;;;5.78;2.60;;;;;;;11.25;85.41;90487.53;4980202;28;20030;-88
2021/07/31 04:27:10;;;;;;;3.63;2.38;;;;;;;11.18;85.38;90476.94;4995599;28;20398;-88
2021/07/31 04:29:47;;;;;;;3.85;2.40;;;;;;;11.32;85.03;90482.44;4995704;28;20025;-88
2021/07/31 04:32:27;;;;;;;4.50;2.50;;;;;;;11.20;85.68;90493.00;4980484;28;20029;-87
2021/07/31 04:35:08;;;;;;;3.53;2.40;;;;;;;11.19;85.19;90489.63;5011466;28;20124;-87
2021/07/31 04:37:46;;;;;;;3.92;2.70;;;;;;;11.28;85.69;90486.09;4981069;28;20429;-87
2021/07/31 04:40:26;;;;;;;5.03;2.72;;;;;;;11.38;85.30;90491.53;4979746;28;20030;-88
2021/07/31 04:43:01;;;;;;;3.78;2.45;;;;;;;11.42;85.15;90487.13;4994768;28;20029;-87
2021/07/31 04:45:42;;;;;;;6.05;2.55;;;;;;;11.52;85.29;90490.28;4979899;28;20025;-87
2021/07/31 04:48:16;;;;;;;5.80;2.65;;;;;;;11.47;85.58;90473.78;4979261;28;20117;-89
2021/07/31 04:50:58;;;;;;;6.57;2.50;;;;;;;11.57;85.65;90476.97;4994619;28;20033;-87
2021/07/31 04:53:41;;;;;;;4.47;2.78;;;;;;;11.53;85.43;90465.72;4980665;28;20029;-88
2021/07/31 04:56:18;;;;;;;7.78;3.00;;;;;;;11.58;85.98;90478.47;4980497;28;20045;-88
2021/07/31 04:58:56;;;;;;;6.80;3.13;;;;;;;11.68;87.57;90480.53;5011456;28;20022;-87
2021/07/31 05:01:30;;;;;;;3.28;2.53;;;;;;;11.78;85.86;90479.97;5010884;28;20069;-88
2021/07/31 05:04:04;;;;;;;3.38;2.50;;;;;;;11.79;85.41;90484.09;5011347;28;20101;-87
2021/07/31 05:06:40;;;;;;;;;;;;;;;11.93;85.97;90483.63;5011465;28;20022;-87
2021/07/31 05:09:14;;;;;;;;;;;;;;;12.00;84.99;90478.53;4995468;28;20355;-88
2021/07/31 05:11:54;;;;;;;5.07;2.47;;;;;;;12.15;84.51;90474.28;4978730;28;19910;-88
2021/07/31 05:14:32;;;;;;;9.20;2.80;;;;;;;12.14;83.63;90470.19;4963537;28;20267;-87
2021/07/31 05:17:08;;;;;;;7.53;2.38;;;;;;;12.29;82.95;90464.09;4962035;28;20030;-87
2021/07/31 05:19:40;;;;;;;4.68;2.33;;;;;;;12.37;83.11;90470.19;4995789;28;20083;-88
2021/07/31 05:22:19;;;;;;;6.88;2.45;;;;;;;12.49;83.19;90482.31;4987860;28;20026;-87
2021/07/31 05:24:55;;;;;;;4.43;2.38;;;;;;;12.40;85.07;90477.31;4982738;28;20053;-87
2021/07/31 05:27:28;;;;;;;6.22;2.50;;;;;;;12.48;81.36;90486.06;4995693;28;20162;-86
2021/07/31 05:30:03;;;;;;;4.22;2.13;;;;;;;12.56;80.77;90492.91;4979096;28;20025;-87
2021/07/31 05:32:38;;;;;;;4.75;1.95;;;;;;;12.58;78.40;90486.22;4995293;28;20109;-87
2021/07/31 05:35:19;;;;;;;4.95;2.00;;;;;;;12.79;77.46;90493.63;4996112;28;20433;-86
2021/07/31 05:38:05;;;;;;;5.88;2.00;;;;;;;12.83;76.64;90483.97;4996530;28;20065;-89
2021/07/31 05:40:39;;;;;;;4.07;1.80;;;;;;;12.89;77.82;90479.19;4978847;28;20030;-87
2021/07/31 05:43:18;;;;;;;4.13;1.83;;;;;;;12.96;76.79;90479.28;4994785;28;20044;-88
2021/07/31 05:45:52;;;;;;;6.72;1.80;;;;;;;13.14;76.26;90477.69;4995505;28;20026;-86
2021/07/31 05:48:27;;;;;;;6.65;1.98;;;;;;;13.07;77.40;90484.66;4978265;28;20450;-88
2021/07/31 05:51:01;;;;;;;4.22;2.05;;;;;;;13.16;77.35;90490.41;4978806;28;20490;-87
2021/07/31 05:53:40;;;;;;;6.72;2.25;;;;;;;13.34;76.50;90486.19;4978948;28;20410;-87
2021/07/31 05:56:14;;;;;;;4.05;2.00;;;;;;;13.49;76.79;90478.53;4978628;28;20029;-87
2021/07/31 05:58:53;;;;;;;5.40;2.20;;;;;;;13.56;76.97;90473.38;4979048;28;20026;-88
2021/07/31 06:01:28;;;;;;;4.75;2.15;;;;;;;13.70;76.52;90486.63;4994507;28;20026;-87
2021/07/31 06:04:05;;;;;;;6.18;2.30;;;;;;;13.51;74.22;90473.69;4979180;28;20118;-89
2021/07/31 06:06:44;;;;;;;4.10;1.83;;;;;;;13.57;74.73;90478.25;4978823;28;20018;-86
2021/07/31 06:09:26;;;;;;;5.15;2.00;;;;;;;13.55;74.77;90477.84;4993647;28;20141;-87
2021/07/31 06:12:03;;;;;;;6.45;2.03;;;;;;;13.76;74.62;90497.56;4994513;28;20105;-86
2021/07/31 06:14:46;;;;;;;6.68;2.25;;;;;;;13.77;74.40;90481.47;4982086;28;20461;-86
2021/07/31 06:17:26;;;;;;;7.00;2.08;;;;;;;14.01;74.04;90474.25;4978933;28;20120;-86
2021/07/31 06:20:03;;;;;;;7.32;2.00;;;;;;;13.97;74.78;90470.84;5011169;28;20026;-86
2021/07/31 06:22:39;;;;;;;3.88;1.92;;;;;;;14.10;72.80;90459.75;4978833;28;20049;-89
2021/07/31 06:25:16;;;;;;;4.30;1.60;;;;;;;13.96;72.56;90470.09;4996929;28;20108;-86
2021/07/31 06:27:50;;;;;;;4.93;2.17;;;;;;;14.02;72.81;90476.50;4981993;28;20489;-86
2021/07/31 06:30:26;;;;;;;4.10;1.90;;;;;;;14.10;72.92;90474.72;5017896;28;20029;-86
2021/07/31 06:33:03;;;;;;;4.22;1.80;;;;;;;14.04;72.30;90478.78;5002757;28;20037;-86
2021/07/31 06:35:43;;;;;;;4.30;2.13;;;;;;;13.92;71.41;90473.75;4985575;28;20021;-87
2021/07/31 06:38:21;;;;;;;6.88;1.90;;;;;;;14.07;71.69;90478.81;5018816;28;20021;-88
2021/07/31 06:40:55;;;;;;;4.40;1.85;;;;;;;13.99;71.25;90484.31;5001327;28;20511;-88
2021/07/31 06:43:32;;;;;;;7.15;2.22;;;;;;;14.01;71.82;90484.72;5017537;28;20033;-89
2021/07/31 06:46:12;;;;;;;5.43;1.85;;;;;;;14.21;70.27;90491.31;5000707;28;20558;-87
2021/07/31 06:48:48;;;;;;;4.78;2.00;;;;;;;14.29;70.86;90487.63;4984868;28;20025;-88
2021/07/31 06:51:28;;;;;;;11.63;2.00;;;;;;;14.45;68.96;90492.66;4981021;28;20025;-87
2021/07/31 06:54:02;;;;;;;5.68;1.83;;;;;;;14.44;70.65;90496.38;4982011;28;20433;-87
2021/07/31 06:56:48;;;;;;;3.65;1.50;;;;;;;14.54;69.32;90492.38;4965577;28;20025;-87
2021/07/31 06:59:21;;;;;;;3.47;1.70;;;;;;;14.73;68.24;90489.53;5014966;28;20026;-88
2021/07/31 07:04:27;;;;;;;4.65;1.70;;;;;;;14.57;67.88;90484.53;5068328;23;20065;-88
2021/07/31 07:07:05;;;;;;;3.65;1.58;;;;;;;14.53;68.09;90490.88;5001271;28;20094;-89
2021/07/31 07:09:48;;;;;;;3.63;1.80;;;;;;;14.65;68.02;90500.31;5000631;28;20116;-90
2021/07/31 07:12:29;;;;;;;5.13;1.67;;;;;;;14.62;66.67;90493.94;5001971;28;20030;-88
2021/07/31 07:15:00;;;;;;;6.20;2.08;;;;;;;14.48;67.36;90499.03;5001283;28;20048;-90
2021/07/31 07:17:41;;;;;;;4.53;1.70;;;;;;;14.47;67.74;90497.53;5000486;28;20025;-92
2021/07/31 07:20:14;;;;;;;4.30;1.70;;;;;;;14.61;67.02;90497.69;5000608;28;20349;-89
2021/07/31 07:22:54;;;;;;;4.30;1.50;;;;;;;14.44;67.35;90488.50;4984080;28;20088;-89
2021/07/31 07:25:36;;;;;;;6.88;1.60;;;;;;;14.58;67.40;90490.53;5001091;28;20021;-88
2021/07/31 07:28:11;;;;;;;5.97;1.70;;;;;;;14.62;68.30;90493.19;5017568;28;20039;-90
2021/07/31 07:30:48;;;;;;;7.95;1.90;;;;;;;14.65;66.77;90474.84;5000624;28;20025;-89
2021/07/31 07:33:18;;;;;;;4.55;1.60;;;;;;;14.69;64.96;90480.13;4984355;28;20025;-89
2021/07/31 07:35:51;;;;;;;6.97;1.85;;;;;;;14.58;66.50;90477.41;5016127;28;20025;-87
2021/07/31 07:38:18;;;;;;;4.75;1.65;;;;;;;14.80;66.21;90478.31;5000752;28;20036;-89
2021/07/31 07:40:45;;;;;;;5.60;1.60;;;;;;;15.02;66.61;90480.00;4998767;28;20553;-88
2021/07/31 07:43:11;;;;;;;5.28;1.70;;;;;;;15.04;62.96;90474.38;4999359;28;20505;-89
2021/07/31 07:45:37;;;;;;;3.63;1.50;;;;;;;14.96;64.80;90473.59;4999757;28;20112;-90
2021/07/31 07:48:06;;;;;;;6.03;1.95;;;;;;;15.11;64.69;90474.41;5016030;28;20017;-87
2021/07/31 07:50:41;;;;;;;4.45;1.50;;;;;;;15.11;65.05;90466.56;5016142;28;20120;-89
2021/07/31 07:53:17;;;;;;;4.65;2.00;;;;;;;15.13;61.97;90466.19;4983594;28;20029;-90
2021/07/31 07:55:47;;;;;;;4.00;1.65;;;;;;;15.14;64.30;90481.56;5015707;28;20026;-89
2021/07/31 07:58:24;;;;;;;7.20;2.00;;;;;;;15.17;64.03;90480.84;4983769;28;20489;-89
2021/07/31 08:01:05;;;;;;;3.10;1.48;;;;;;;15.15;63.55;90477.81;4984560;28;20029;-89
2021/07/31 08:03:37;;;;;;;7.30;2.38;;;;;;;15.16;63.57;90484.59;5017634;28;20037;-89
2021/07/31 08:06:21;;;;;;;5.25;1.92;;;;;;;15.15;64.34;90472.56;4985300;28;20025;-89
2021/07/31 08:08:54;;;;;;;7.35;2.05;;;;;;;15.15;62.36;90471.81;4986686;28;20452;-89
2021/07/31 08:11:30;;;;;;;40.28;8.05;;;;;;;15.20;62.48;90476.75;5000574;28;20032;-89
2021/07/31 08:14:09;;;;;;;9.48;2.13;;;;;;;15.22;61.58;90472.63;4984729;28;20025;-90
2021/07/31 08:16:44;;;;;;;8.30;2.45;;;;;;;15.25;60.23;90466.63;5000971;28;20029;-89
2021/07/31 08:19:24;;;;;;;6.13;1.63;;;;;;;15.41;60.42;90468.22;4984369;28;20022;-89
2021/07/31 08:22:01;;;;;;;2.47;1.42;;;;;;;15.29;61.58;90483.16;5016069;28;20030;-89
2021/07/31 08:24:41;;;;;;;3.33;1.10;;;;;;;15.44;58.92;90472.72;4999614;28;20029;-88
2021/07/31 08:27:22;;;;;;;4.10;1.48;;;;;;;15.45;60.31;90490.75;5017302;28;20028;-87
2021/07/31 08:30:08;;;;;;;5.80;1.60;;;;;;;15.40;58.45;90498.97;4984680;28;20021;-90
2021/07/31 08:32:51;;;;;;;4.28;1.30;;;;;;;15.46;60.85;90494.13;5018191;28;20477;-88
2021/07/31 08:35:29;;;;;;;5.93;1.42;;;;;;;15.47;58.84;90493.75;5018188;28;20116;-88
2021/07/31 08:37:56;;;;;;;4.43;1.70;;;;;;;15.54;58.47;90498.28;5000080;28;20025;-89
2021/07/31 08:40:32;;;;;;;4.43;1.45;;;;;;;15.51;58.13;90496.38;4998604;28;20037;-89
2021/07/31 08:42:58;;;;;;;4.28;1.20;;;;;;;15.67;58.15;90496.88;4982989;28;20029;-88
2021/07/31 08:45:28;;;;;;;7.75;1.63;;;;;;;15.82;60.55;90491.69;4998543;28;20091;-89
2021/07/31 08:47:54;;;;;;;5.75;1.30;;;;;;;16.05;57.05;90499.28;4999168;28;20095;-89
2021/07/31 08:50:21;;;;;;;4.80;1.33;;;;;;;16.02;56.58;90495.53;4982649;28;20029;-89
2021/07/31 08:52:47;;;;;;;5.63;1.23;;;;;;;15.98;56.54;90494.75;4999207;28;20077;-88
2021/07/31 08:55:13;;;;;;;2.53;1.23;;;;;;;16.18;57.11;90487.28;4999340;28;20032;-88
2021/07/31 08:57:49;;;;;;;3.47;1.08;;;;;;;16.24;55.51;90497.06;4999180;28;20021;-88
2021/07/31 09:00:28;;;;;;;6.47;1.50;;;;;;;16.32;56.46;90486.56;4983723;28;20033;-88
2021/07/31 09:03:07;;;;;;;3.63;1.38;;;;;;;16.46;54.89;90497.88;4999096;28;20103;-90
2021/07/31 09:05:42;;;;;;;3.03;1.17;;;;;;;16.60;52.62;90491.88;5016380;28;20052;-86
2021/07/31 09:08:17;;;;;;;7.22;1.30;;;;;;;16.61;53.05;90482.13;5000127;28;20489;-86
2021/07/31 09:10:54;;;;;;;2.80;1.20;;;;;;;16.81;52.53;90475.38;5013591;28;20034;-89
2021/07/31 09:13:36;;;;;;;3.80;1.38;;;;;;;16.80;48.29;90475.78;4999550;28;20053;-88
2021/07/31 09:16:07;;;;;;;3.28;1.10;;;;;;;16.61;47.56;90490.75;5016122;28;20390;-88
2021/07/31 09:18:36;;;;;;;4.63;1.00;;;;;;;16.52;48.34;90471.97;4998558;28;20030;-87
2021/07/31 09:21:18;;;;;;;2.90;0.90;;;;;;;16.45;47.19;90474.59;4997898;28;20025;-88
2021/07/31 09:24:00;;;;;;;3.85;1.08;;;;;;;16.64;47.70;90471.59;5015972;28;20025;-88
2021/07/31 09:26:46;;;;;;;3.92;1.40;;;;;;;16.69;45.95;90481.75;4983043;28;20029;-88
2021/07/31 09:29:33;;;;;;;5.20;1.20;;;;;;;16.67;46.13;90475.34;5001431;28;20025;-90
2021/07/31 09:32:08;;;;;;;3.72;1.17;;;;;;;16.76;48.42;90470.50;4999314;28;20017;-88
2021/07/31 09:34:51;;;;;;;4.18;0.95;;;;;;;16.90;47.88;90475.00;4981836;28;20028;-89
2021/07/31 09:37:28;;;;;;;2.63;1.00;;;;;;;17.01;47.36;90465.22;4982859;28;20022;-88
2021/07/31 09:40:05;;;;;;;3.22;0.90;;;;;;;17.06;45.58;90470.09;4998529;28;20053;-88
2021/07/31 09:42:41;;;;;;;3.33;1.27;;;;;;;17.22;46.02;90471.59;4998856;28;20402;-88
2021/07/31 09:45:20;;;;;;;3.35;1.17;;;;;;;17.15;45.77;90478.38;5013986;28;20025;-89
2021/07/31 09:48:11;;;;;;;3.50;0.93;;;;;;;17.12;45.68;90479.13;4982611;28;20029;-88
2021/07/31 09:50:46;;;;;;;3.83;1.10;;;;;;;17.41;46.08;90481.72;4995655;28;20116;-90
2021/07/31 09:53:22;;;;;;;4.35;0.93;;;;;;;17.53;47.19;90468.16;4993926;28;20021;-89
2021/07/31 09:55:59;;;;;;;3.75;0.93;;;;;;;17.36;45.81;90474.22;4994648;28;20398;-88
2021/07/31 09:58:31;;;;;;;2.85;0.80;;;;;;;17.49;43.72;90464.78;4979284;28;20033;-88
2021/07/31 10:01:10;;;;;;;2.42;0.90;;;;;;;17.47;45.97;90464.41;4978297;28;20036;-87
2021/07/31 10:03:49;;;;;;;4.32;1.10;;;;;;;17.76;46.58;90469.59;4978850;28;20022;-88
2021/07/31 10:06:32;;;;;;;3.28;1.13;;;;;;;17.82;47.18;90468.09;4978890;28;20045;-89
2021/07/31 10:09:08;;;;;;;2.55;0.98;;;;;;;17.60;46.42;90462.84;4994901;28;20393;-89
2021/07/31 10:11:48;;;;;;;5.03;1.10;;;;;;;18.06;48.12;90469.13;4979509;28;20018;-89
2021/07/31 10:14:28;;;;;;;3.22;1.15;;;;;;;18.21;49.87;90464.50;4995619;28;20026;-89
2021/07/31 10:17:04;;;;;;;5.93;1.05;;;;;;;18.24;47.63;90471.66;4994721;28;20486;-88
2021/07/31 10:19:47;;;;;;;4.00;1.27;;;;;;;17.89;51.43;90466.16;4978295;28;20491;-88
2021/07/31 10:22:42;;;;;;;3.65;1.20;;;;;;;18.32;51.98;90465.19;4979071;28;20367;-88
2021/07/31 10:25:24;;;;;;;3.92;1.10;;;;;;;18.44;49.75;90469.28;4981079;28;20022;-88
2021/07/31 10:28:31;;;;;;;3.90;1.05;;;;;;;17.98;47.03;90468.38;4979705;28;20494;-88
2021/07/31 10:31:35;;;;;;;7.18;1.30;;;;;;;18.32;44.74;90470.47;5010995;28;20026;-87
2021/07/31 10:34:15;;;;;;;6.57;1.30;;;;;;;18.22;45.25;90466.75;4993468;28;20060;-88
2021/07/31 10:36:55;;;;;;;4.65;1.77;;;;;;;18.15;43.23;90472.06;4994231;28;20033;-88
2021/07/31 10:39:43;;;;;;;3.13;1.15;;;;;;;18.30;43.91;90472.75;4978946;28;20021;-88
2021/07/31 10:42:20;;;;;;;5.20;1.73;;;;;;;18.09;44.10;90468.31;5011590;28;20049;-87
2021/07/31 10:45:23;;;;;;;3.08;0.93;;;;;;;18.36;45.05;90477.22;4978365;28;20025;-89
2021/07/31 10:47:58;;;;;;;3.78;1.25;;;;;;;18.62;46.69;90475.19;5011448;28;20022;-88
2021/07/31 10:50:42;;;;;;;11.25;3.00;;;;;;;18.57;47.27;90481.63;4993557;28;20104;-89
2021/07/31 10:53:18;;;;;;;3.15;1.08;;;;;;;19.00;45.49;90465.50;4978101;28;20057;-89
2021/07/31 10:55:52;;;;;;;3.28;1.10;;;;;;;18.84;44.88;90466.00;4977636;28;20416;-87
2021/07/31 10:58:24;;;;;;;;;;;;;;;18.99;44.49;90463.25;5011762;28;20053;-88
2021/07/31 11:01:35;;;;;;;2.35;0.90;;;;;;;19.00;44.06;90454.94;4993505;28;19909;-90
2021/07/31 11:04:14;;;;;;;4.38;1.10;;;;;;;18.95;44.48;90468.56;4943078;28;20031;-87
2021/07/31 11:07:12;;;;;;;3.55;0.80;;;;;;;18.73;44.24;90477.78;4977044;28;20025;-88
2021/07/31 11:10:06;;;;;;;3.20;1.00;;;;;;;18.56;46.05;90474.84;4977182;28;20490;-88
2021/07/31 11:12:44;;;;;;;;;;;;;;;18.79;48.09;90473.59;4997784;28;20025;-89
2021/07/31 11:15:22;;;;;;;6.03;1.50;;;;;;;18.80;46.46;90467.19;4994363;28;20242;-88
2021/07/31 11:18:05;;;;;;;2.90;0.90;;;;;;;18.95;43.75;90463.28;4997251;28;20025;-88
2021/07/31 11:20:38;;;;;;;4.78;1.00;;;;;;;19.03;43.97;90466.63;4965697;28;20034;-88
2021/07/31 11:23:07;;;;;;;3.65;0.98;;;;;;;18.94;43.30;90472.34;4981148;28;20046;-88
2021/07/31 11:25:45;;;;;;;3.65;1.10;;;;;;;18.95;44.69;90470.47;4987108;28;20024;-89
2021/07/31 11:28:20;;;;;;;4.70;1.30;;;;;;;19.08;43.39;90463.53;5000699;28;20025;-88
2021/07/31 11:30:53;;;;;;;7.65;1.10;;;;;;;18.99;45.17;90473.81;4999595;28;20029;-89
2021/07/31 11:33:35;;;;;;;7.30;2.50;;;;;;;18.52;43.71;90478.66;4984229;28;20120;-88
2021/07/31 11:36:08;;;;;;;8.55;4.38;;;;;;;18.34;43.27;90471.59;4999891;28;20409;-89
2021/07/31 11:38:41;;;;;;;14.75;7.53;;;;;;;18.37;44.26;90478.75;4983946;28;20116;-88
2021/07/31 11:41:27;;;;;;;3.60;1.17;;;;;;;18.58;45.46;90477.84;4999999;28;20075;-91
2021/07/31 11:44:00;;;;;;;9.90;3.47;;;;;;;18.27;45.84;90484.06;5016653;28;20025;-90
2021/07/31 11:46:48;;;;;;;2.75;1.15;;;;;;;18.62;47.65;90473.31;4983959;28;20029;-90
2021/07/31 11:49:41;;;;;;;3.30;1.05;;;;;;;18.68;45.49;90478.16;5017995;28;20033;-90
2021/07/31 11:52:19;;;;;;;5.03;2.17;;;;;;;18.66;45.97;90480.44;5000891;28;20421;-89
2021/07/31 11:55:03;;;;;;;5.10;1.40;;;;;;;18.69;46.94;90480.41;5018429;28;20021;-93
2021/07/31 11:57:36;;;;;;;;;;;;;;;18.63;45.00;90492.53;5003937;28;20033;-92
2021/07/31 12:00:24;;;;;;;2.78;0.80;;;;;;;18.39;44.31;90488.91;5019082;28;19956;-88
2021/07/31 12:03:05;;;;;;;3.33;1.25;;;;;;;18.33;45.25;90487.78;5033116;28;20037;-88
2021/07/31 12:05:52;;;;;;;4.40;1.08;;;;;;;18.17;46.24;90482.25;4999686;28;20041;-90
2021/07/31 12:08:45;;;;;;;3.78;1.10;;;;;;;18.54;45.07;90469.19;5000985;28;20391;-87
2021/07/31 12:11:33;;;;;;;3.83;1.00;;;;;;;18.62;45.92;90462.75;4986311;28;20561;-90
2021/07/31 12:14:27;;;;;;;2.45;1.00;;;;;;;18.77;47.96;90462.69;4986146;28;20048;-89
2021/07/31 12:17:30;;;;;;;3.00;1.17;;;;;;;18.49;45.66;90455.69;5001239;28;20021;-92
2021/07/31 12:20:12;;;;;;;3.08;1.08;;;;;;;18.51;47.47;90440.94;4986436;28;20021;-92
2021/07/31 12:22:59;;;;;;;5.45;1.30;;;;;;;18.28;47.53;90443.38;5031612;28;20559;-89
2021/07/31 12:25:33;;;;;;;4.40;1.35;;;;;;;18.44;46.55;90430.44;5017206;28;20473;-89
2021/07/31 12:28:22;;;;;;;;;;;;;;;18.93;47.43;90449.72;4984887;28;20025;-89